createdAt,value
2023-08-29T00:00:42.817Z,20.09
2023-08-29T00:03:28.992Z,20.06
2023-08-29T00:06:04.986Z,20.04
2023-08-29T00:08:36.316Z,20.00
2023-08-29T00:11:05.352Z,19.95
2023-08-29T00:13:33.421Z,19.88
2023-08-29T00:16:01.852Z,19.87
2023-08-29T00:18:30.506Z,19.88
2023-08-29T00:20:58.503Z,19.83
2023-08-29T00:23:26.478Z,19.79
2023-08-29T00:25:54.435Z,19.69
2023-08-29T00:28:22.723Z,19.63
2023-08-29T00:30:50.652Z,19.61
2023-08-29T00:33:19.377Z,19.57
2023-08-29T00:35:48.693Z,19.52
2023-08-29T00:38:20.191Z,19.44
2023-08-29T00:40:48.219Z,19.32
2023-08-29T00:43:16.266Z,19.32
2023-08-29T00:45:44.839Z,19.31
2023-08-29T00:48:14.096Z,19.26
2023-08-29T00:50:42.841Z,19.24
2023-08-29T00:53:11.533Z,19.21
2023-08-29T00:55:39.473Z,19.15
2023-08-29T00:58:07.740Z,19.12
2023-08-29T01:00:37.891Z,19.09
2023-08-29T01:03:06.572Z,19.07
2023-08-29T01:05:35.151Z,19.02
2023-08-29T01:08:05.599Z,19.02
2023-08-29T01:11:28.402Z,19.01
2023-08-29T01:14:11.384Z,19.02
2023-08-29T01:16:53.511Z,19.00
2023-08-29T01:19:23.972Z,18.93
2023-08-29T01:22:49.051Z,18.91
2023-08-29T01:25:31.900Z,18.85
2023-08-29T01:28:01.995Z,18.84
2023-08-29T01:30:30.471Z,18.87
2023-08-29T01:32:59.604Z,18.85
2023-08-29T01:35:27.971Z,18.85
2023-08-29T01:37:56.072Z,18.81
2023-08-29T01:40:24.644Z,18.77
2023-08-29T01:42:55.339Z,18.75
2023-08-29T01:45:23.396Z,18.73
2023-08-29T01:47:52.224Z,18.70
2023-08-29T01:50:21.869Z,18.68
2023-08-29T01:52:50.435Z,18.63
2023-08-29T01:55:19.623Z,18.56
2023-08-29T01:57:50.694Z,18.55
2023-08-29T02:00:20.109Z,18.55
2023-08-29T02:02:50.624Z,18.56
2023-08-29T02:05:18.724Z,18.57
2023-08-29T02:07:46.763Z,18.55
2023-08-29T02:10:15.117Z,18.53
2023-08-29T02:12:43.586Z,18.51
2023-08-29T02:15:11.973Z,18.48
2023-08-29T02:17:40.325Z,18.45
2023-08-29T02:20:10.206Z,18.42
2023-08-29T02:22:38.772Z,18.44
2023-08-29T02:25:07.288Z,18.43
2023-08-29T02:27:35.297Z,18.39
2023-08-29T02:30:06.113Z,18.36
2023-08-29T02:32:35.886Z,18.36
2023-08-29T02:35:05.343Z,18.32
2023-08-29T02:37:36.184Z,18.30
2023-08-29T02:40:11.219Z,18.27
2023-08-29T02:42:39.324Z,18.24
2023-08-29T02:45:07.675Z,18.21
2023-08-29T02:47:35.882Z,18.18
2023-08-29T02:50:06.489Z,18.19
2023-08-29T02:52:34.528Z,18.18
2023-08-29T02:55:04.930Z,18.15
2023-08-29T02:57:32.895Z,18.13
2023-08-29T03:00:00.946Z,18.10
2023-08-29T03:02:30.273Z,18.08
2023-08-29T03:04:58.481Z,18.05
2023-08-29T03:07:27.186Z,18.03
2023-08-29T03:09:55.243Z,18.01
2023-08-29T03:12:23.848Z,17.99
2023-08-29T03:14:55.449Z,18.02
2023-08-29T03:17:24.265Z,18.00
2023-08-29T03:19:52.497Z,17.97
2023-08-29T03:22:20.489Z,17.94
2023-08-29T03:24:48.811Z,17.92
2023-08-29T03:27:17.908Z,17.90
2023-08-29T03:29:45.973Z,17.89
2023-08-29T03:32:14.043Z,17.88
2023-08-29T03:34:42.086Z,17.85
2023-08-29T03:37:10.092Z,17.84
2023-08-29T03:39:38.181Z,17.83
2023-08-29T03:42:06.299Z,17.80
2023-08-29T03:44:34.585Z,17.75
2023-08-29T03:47:02.628Z,17.71
2023-08-29T03:49:31.031Z,17.68
2023-08-29T03:51:59.041Z,17.66
2023-08-29T03:54:27.454Z,17.66
2023-08-29T03:56:55.427Z,17.64
2023-08-29T03:59:24.186Z,17.65
2023-08-29T04:01:52.227Z,17.68
2023-08-29T04:04:20.486Z,17.67
2023-08-29T04:06:48.599Z,17.69
2023-08-29T04:09:16.546Z,17.66
2023-08-29T04:11:44.494Z,17.67
2023-08-29T04:14:12.432Z,17.68
2023-08-29T04:16:40.404Z,17.70
2023-08-29T04:19:08.819Z,17.73
2023-08-29T04:21:36.722Z,17.77
2023-08-29T04:24:04.870Z,17.84
2023-08-29T04:26:32.851Z,17.87
2023-08-29T04:29:00.823Z,17.90
2023-08-29T04:31:29.019Z,17.93
2023-08-29T04:33:57.687Z,17.97
2023-08-29T04:36:26.739Z,18.01
2023-08-29T04:38:55.231Z,18.06
2023-08-29T04:41:23.205Z,18.08
2023-08-29T04:43:51.187Z,18.11
2023-08-29T04:46:19.262Z,18.12
2023-08-29T04:48:47.218Z,18.19
2023-08-29T04:51:15.287Z,18.25
2023-08-29T04:53:43.457Z,18.29
2023-08-29T04:56:12.552Z,18.32
2023-08-29T04:58:40.634Z,18.39
2023-08-29T05:01:08.717Z,18.44
2023-08-29T05:03:36.926Z,18.48
2023-08-29T05:06:05.146Z,18.52
2023-08-29T05:08:36.331Z,18.57
2023-08-29T05:11:05.531Z,18.62
2023-08-29T05:13:34.000Z,18.70
2023-08-29T05:16:02.055Z,18.79
2023-08-29T05:18:30.332Z,18.84
2023-08-29T05:20:59.896Z,18.91
2023-08-29T05:23:28.027Z,18.97
2023-08-29T05:25:55.901Z,19.04
2023-08-29T05:28:23.987Z,19.14
2023-08-29T05:30:52.006Z,19.23
2023-08-29T05:33:19.897Z,19.29
2023-08-29T05:35:48.531Z,19.36
2023-08-29T05:38:16.472Z,19.42
2023-08-29T05:40:44.425Z,19.47
2023-08-29T05:43:12.437Z,19.54
2023-08-29T05:45:42.665Z,19.66
2023-08-29T05:48:10.806Z,19.76
2023-08-29T05:50:42.524Z,19.83
2023-08-29T05:53:10.679Z,19.91
2023-08-29T05:55:39.236Z,20.00
2023-08-29T05:58:07.431Z,20.11
2023-08-29T06:00:37.245Z,20.20
2023-08-29T06:03:08.674Z,20.33
2023-08-29T06:05:37.872Z,20.42
2023-08-29T06:08:17.528Z,20.53
2023-08-29T06:10:47.783Z,20.63
2023-08-29T06:13:15.867Z,20.74
2023-08-29T06:15:44.112Z,20.91
2023-08-29T06:18:12.087Z,21.09
2023-08-29T06:20:40.158Z,21.27
2023-08-29T06:23:08.238Z,21.51
2023-08-29T06:25:36.922Z,21.80
2023-08-29T06:28:05.412Z,22.15
2023-08-29T06:30:36.288Z,22.50
2023-08-29T06:33:07.730Z,22.88
2023-08-29T06:35:40.462Z,23.28
2023-08-29T06:38:09.458Z,23.76
2023-08-29T06:40:37.805Z,24.31
2023-08-29T06:43:05.824Z,24.97
2023-08-29T06:45:34.011Z,25.52
2023-08-29T06:48:02.314Z,26.09
2023-08-29T06:50:30.544Z,26.73
2023-08-29T06:52:58.543Z,27.28
2023-08-29T06:55:26.458Z,28.07
2023-08-29T06:57:54.434Z,28.74
2023-08-29T07:00:24.420Z,29.64
2023-08-29T07:02:53.096Z,30.10
2023-08-29T07:05:21.690Z,30.56
2023-08-29T07:07:49.649Z,31.63
2023-08-29T07:10:17.941Z,32.68
2023-08-29T07:12:46.493Z,33.52
2023-08-29T07:15:14.467Z,34.47
2023-08-29T07:17:44.106Z,35.18
2023-08-29T07:20:12.805Z,35.91
2023-08-29T07:22:44.714Z,35.67
2023-08-29T07:25:14.696Z,36.36
2023-08-29T07:27:42.694Z,37.03
2023-08-29T07:30:16.051Z,37.32
2023-08-29T07:32:47.081Z,37.56
2023-08-29T07:35:15.702Z,38.06
2023-08-29T07:37:43.855Z,38.82
2023-08-29T07:40:12.109Z,39.32
2023-08-29T07:42:40.241Z,39.67
2023-08-29T07:45:09.797Z,40.14
2023-08-29T07:47:47.335Z,40.26
2023-08-29T07:50:15.497Z,40.55
2023-08-29T07:52:43.492Z,40.29
2023-08-29T07:55:11.781Z,40.39
2023-08-29T07:57:39.806Z,40.71
2023-08-29T08:00:11.209Z,40.84
2023-08-29T08:02:40.349Z,41.15
2023-08-29T08:05:11.596Z,40.95
2023-08-29T08:07:40.702Z,40.68
2023-08-29T08:10:09.510Z,40.46
2023-08-29T08:12:39.323Z,40.66
2023-08-29T08:15:09.310Z,41.11
2023-08-29T08:17:38.424Z,41.78
2023-08-29T08:20:09.679Z,42.36
2023-08-29T08:22:42.414Z,42.94
2023-08-29T08:25:11.545Z,43.28
2023-08-29T08:27:42.400Z,43.60
2023-08-29T08:30:20.543Z,43.84
2023-08-29T08:32:48.564Z,44.34
2023-08-29T08:35:17.441Z,44.53
2023-08-29T08:37:45.543Z,44.92
2023-08-29T08:40:16.408Z,44.46
2023-08-29T08:42:45.708Z,44.22
2023-08-29T08:45:14.691Z,44.44
2023-08-29T08:47:44.068Z,44.40
2023-08-29T08:50:13.087Z,44.44
2023-08-29T08:52:48.211Z,44.76
2023-08-29T08:55:16.709Z,45.37
2023-08-29T08:57:45.243Z,45.96
2023-08-29T09:00:13.794Z,46.14
2023-08-29T09:02:44.030Z,45.36
2023-08-29T09:05:12.201Z,45.03
2023-08-29T09:07:41.506Z,44.60
2023-08-29T09:10:16.378Z,44.76
2023-08-29T09:12:48.870Z,45.48
2023-08-29T09:15:20.113Z,45.89
2023-08-29T09:17:51.342Z,46.44
2023-08-29T09:20:21.347Z,46.93
2023-08-29T09:22:49.800Z,47.60
2023-08-29T09:25:17.802Z,47.64
2023-08-29T09:27:48.396Z,47.23
2023-08-29T09:30:20.128Z,46.68
2023-08-29T09:32:52.337Z,46.14
2023-08-29T09:35:24.405Z,46.08
2023-08-29T09:37:56.524Z,46.82
2023-08-29T09:43:02.692Z,47.06
2023-08-29T09:45:32.591Z,46.94
2023-08-29T09:48:07.727Z,47.11
2023-08-29T09:50:37.529Z,47.16
2023-08-29T09:53:07.094Z,47.67
2023-08-29T09:55:40.696Z,48.03
2023-08-29T09:58:11.152Z,47.82
2023-08-29T10:00:42.423Z,48.14
2023-08-29T10:03:12.565Z,48.49
2023-08-29T10:05:46.158Z,48.28
2023-08-29T10:08:25.452Z,47.90
2023-08-29T10:10:58.036Z,48.04
2023-08-29T10:13:26.301Z,48.64
2023-08-29T10:15:55.913Z,48.69
2023-08-29T10:18:25.908Z,48.64
2023-08-29T10:20:55.764Z,48.81
2023-08-29T10:23:24.904Z,48.68
2023-08-29T10:25:53.203Z,49.18
2023-08-29T10:28:22.313Z,49.26
2023-08-29T10:30:54.394Z,49.21
2023-08-29T10:33:23.975Z,49.59
2023-08-29T10:35:52.157Z,49.60
2023-08-29T10:38:20.213Z,49.34
2023-08-29T10:40:48.153Z,48.02
2023-08-29T10:43:21.231Z,46.77
2023-08-29T10:45:55.120Z,46.38
2023-08-29T10:48:32.142Z,46.28
2023-08-29T10:51:10.378Z,46.14
2023-08-29T10:53:39.589Z,46.46
2023-08-29T10:56:11.475Z,46.91
2023-08-29T10:58:40.569Z,47.48
2023-08-29T11:01:34.963Z,47.29
2023-08-29T11:04:14.189Z,48.21
2023-08-29T11:06:54.528Z,48.29
2023-08-29T11:09:24.969Z,47.77
2023-08-29T11:12:14.221Z,47.86
2023-08-29T11:14:52.914Z,48.60
2023-08-29T11:17:24.940Z,49.56
2023-08-29T11:20:03.206Z,50.03
2023-08-29T11:22:31.206Z,50.04
2023-08-29T11:25:00.148Z,50.23
2023-08-29T11:27:32.690Z,50.25
2023-08-29T11:30:19.605Z,50.52
2023-08-29T11:32:52.483Z,50.90
2023-08-29T11:35:21.684Z,50.48
2023-08-29T11:37:49.690Z,49.94
2023-08-29T11:40:25.407Z,49.48
2023-08-29T11:43:26.352Z,49.94
2023-08-29T11:46:02.971Z,50.47
2023-08-29T11:48:35.120Z,49.87
2023-08-29T11:51:08.621Z,49.16
2023-08-29T11:53:39.198Z,48.88
2023-08-29T11:56:11.236Z,47.32
2023-08-29T11:58:41.257Z,45.33
2023-08-29T12:01:09.614Z,43.92
2023-08-29T12:03:39.498Z,44.29
2023-08-29T12:06:14.366Z,44.36
2023-08-29T12:08:47.248Z,45.20
2023-08-29T12:11:17.009Z,46.19
2023-08-29T12:14:02.155Z,45.79
2023-08-29T12:16:30.397Z,46.21
2023-08-29T12:19:08.229Z,46.97
2023-08-29T12:21:36.484Z,47.26
2023-08-29T12:24:12.628Z,45.71
2023-08-29T12:26:40.727Z,45.75
2023-08-29T12:29:08.669Z,46.66
2023-08-29T12:31:36.639Z,47.52
2023-08-29T12:34:05.333Z,47.84
2023-08-29T12:36:33.361Z,47.98
2023-08-29T12:39:01.372Z,47.86
2023-08-29T12:41:32.424Z,47.85
2023-08-29T12:44:04.267Z,47.65
2023-08-29T12:46:32.442Z,46.15
2023-08-29T12:49:01.435Z,44.17
2023-08-29T12:51:30.138Z,42.55
2023-08-29T12:53:58.257Z,41.21
2023-08-29T12:56:26.258Z,41.11
2023-08-29T12:58:54.429Z,42.31
2023-08-29T13:01:22.646Z,43.59
2023-08-29T13:03:50.830Z,44.26
2023-08-29T13:06:19.008Z,44.66
2023-08-29T13:08:47.328Z,44.50
2023-08-29T13:11:15.278Z,43.03
2023-08-29T13:13:43.343Z,42.20
2023-08-29T13:16:11.320Z,41.40
2023-08-29T13:18:39.294Z,41.48
2023-08-29T13:21:08.914Z,42.35
2023-08-29T13:23:39.813Z,43.16
2023-08-29T13:26:07.811Z,43.55
2023-08-29T13:28:35.828Z,43.71
2023-08-29T13:31:06.074Z,43.99
2023-08-29T13:33:36.196Z,43.95
2023-08-29T13:36:04.498Z,44.04
2023-08-29T13:38:32.474Z,44.10
2023-08-29T13:41:00.367Z,44.07
2023-08-29T13:43:28.318Z,43.67
2023-08-29T13:45:56.391Z,43.47
2023-08-29T13:48:24.451Z,43.50
2023-08-29T13:50:53.384Z,43.29
2023-08-29T13:53:21.503Z,43.74
2023-08-29T13:55:52.771Z,44.43
2023-08-29T13:58:21.050Z,44.08
2023-08-29T14:00:49.050Z,43.80
2023-08-29T14:03:29.258Z,43.54
2023-08-29T14:06:05.132Z,43.79
2023-08-29T14:08:33.181Z,44.05
2023-08-29T14:11:06.516Z,44.06
2023-08-29T14:13:35.875Z,43.77
2023-08-29T14:16:04.754Z,43.28
2023-08-29T14:18:35.274Z,43.21
2023-08-29T14:21:04.079Z,43.26
2023-08-29T14:23:32.070Z,43.35
2023-08-29T14:26:00.057Z,43.53
2023-08-29T14:28:28.006Z,43.27
2023-08-29T14:30:56.116Z,42.88
2023-08-29T14:33:24.338Z,42.58
2023-08-29T14:35:56.232Z,41.58
2023-08-29T14:38:24.334Z,40.66
2023-08-29T14:40:52.542Z,39.96
2023-08-29T14:43:20.475Z,39.33
2023-08-29T14:45:48.931Z,38.50
2023-08-29T14:48:16.905Z,37.72
2023-08-29T14:50:45.903Z,37.24
2023-08-29T14:53:13.980Z,36.89
2023-08-29T14:55:41.971Z,36.61
2023-08-29T14:58:10.456Z,36.52
2023-08-29T15:00:43.594Z,36.32
2023-08-29T15:03:14.146Z,36.11
2023-08-29T15:05:43.078Z,35.87
2023-08-29T15:08:11.285Z,35.74
2023-08-29T15:10:39.270Z,35.60
2023-08-29T15:13:08.716Z,35.43
2023-08-29T15:15:39.562Z,35.21
2023-08-29T15:18:07.889Z,34.96
2023-08-29T15:20:39.745Z,34.65
2023-08-29T15:23:07.631Z,34.43
2023-08-29T15:25:35.525Z,34.11
2023-08-29T15:28:04.138Z,33.79
2023-08-29T15:30:32.369Z,33.58
2023-08-29T15:33:00.457Z,33.47
2023-08-29T15:35:28.606Z,33.26
2023-08-29T15:37:57.354Z,33.02
2023-08-29T15:40:25.420Z,32.91
2023-08-29T15:42:53.522Z,32.78
2023-08-29T15:45:21.581Z,32.63
2023-08-29T15:47:50.217Z,32.46
2023-08-29T15:50:18.436Z,32.39
2023-08-29T15:52:46.365Z,32.31
2023-08-29T15:55:14.315Z,32.13
2023-08-29T15:57:42.230Z,32.03
2023-08-29T16:00:15.420Z,31.91
2023-08-29T16:02:47.848Z,31.70
2023-08-29T16:05:16.233Z,31.61
2023-08-29T16:07:45.935Z,31.52
2023-08-29T16:10:16.026Z,31.35
2023-08-29T16:12:44.311Z,31.20
2023-08-29T16:15:14.963Z,31.08
2023-08-29T16:17:45.209Z,31.00
2023-08-29T16:20:13.368Z,30.89
2023-08-29T16:22:41.428Z,30.78
2023-08-29T16:25:10.287Z,30.66
2023-08-29T16:27:38.472Z,30.59
2023-08-29T16:30:08.852Z,30.44
2023-08-29T16:32:37.116Z,30.34
2023-08-29T16:35:05.527Z,30.18
2023-08-29T16:37:33.684Z,30.05
2023-08-29T16:40:01.644Z,30.01
2023-08-29T16:42:33.886Z,29.90
2023-08-29T16:45:02.140Z,29.85
2023-08-29T16:47:30.124Z,29.81
2023-08-29T16:49:58.173Z,29.72
2023-08-29T16:52:26.223Z,29.66
2023-08-29T16:54:54.203Z,29.57
2023-08-29T16:57:22.246Z,29.54
2023-08-29T16:59:58.985Z,29.50
2023-08-29T17:02:28.183Z,29.41
2023-08-29T17:04:56.844Z,29.34
2023-08-29T17:07:25.739Z,29.19
2023-08-29T17:09:53.750Z,29.07
2023-08-29T17:12:23.762Z,28.96
2023-08-29T17:14:52.578Z,28.86
2023-08-29T17:17:21.163Z,28.75
2023-08-29T17:19:50.652Z,28.65
2023-08-29T17:22:18.659Z,28.56
2023-08-29T17:24:46.838Z,28.48
2023-08-29T17:27:14.878Z,28.41
2023-08-29T17:29:43.022Z,28.38
2023-08-29T17:32:11.403Z,28.36
2023-08-29T17:34:39.378Z,28.33
2023-08-29T17:37:07.327Z,28.24
2023-08-29T17:39:35.460Z,28.23
2023-08-29T17:42:03.653Z,28.14
2023-08-29T17:44:31.774Z,28.12
2023-08-29T17:46:59.742Z,28.00
2023-08-29T17:49:27.882Z,27.85
2023-08-29T17:51:55.901Z,27.76
2023-08-29T17:54:24.284Z,27.53
2023-08-29T17:56:52.255Z,27.45
2023-08-29T17:59:20.751Z,27.36
2023-08-29T18:01:51.030Z,27.33
2023-08-29T18:04:20.646Z,27.17
2023-08-29T18:06:48.835Z,27.07
2023-08-29T18:09:19.406Z,26.93
2023-08-29T18:11:47.708Z,26.87
2023-08-29T18:14:15.652Z,26.67
2023-08-29T18:16:43.630Z,26.52
2023-08-29T18:19:11.837Z,26.51
2023-08-29T18:21:39.832Z,26.49
2023-08-29T18:24:07.929Z,26.42
2023-08-29T18:26:35.929Z,26.36
2023-08-29T18:29:03.943Z,26.28
2023-08-29T18:31:31.910Z,26.25
2023-08-29T18:33:59.885Z,26.23
2023-08-29T18:36:28.594Z,26.13
2023-08-29T18:38:57.279Z,26.12
2023-08-29T18:41:25.214Z,26.06
2023-08-29T18:43:53.232Z,26.00
2023-08-29T18:46:21.279Z,25.97
2023-08-29T18:48:49.406Z,25.93
2023-08-29T18:51:17.524Z,25.89
2023-08-29T18:53:45.619Z,25.89
2023-08-29T18:56:17.218Z,25.90
2023-08-29T18:58:46.939Z,25.96
2023-08-29T19:01:14.945Z,25.94
2023-08-29T19:03:44.274Z,25.26
2023-08-29T19:06:15.359Z,24.27
2023-08-29T19:08:43.421Z,23.74
2023-08-29T19:11:12.846Z,23.29
2023-08-29T19:13:43.507Z,23.03
2023-08-29T19:16:14.366Z,22.97
2023-08-29T19:18:42.490Z,22.90
2023-08-29T19:21:13.345Z,22.90
2023-08-29T19:23:41.345Z,22.64
2023-08-29T19:26:09.401Z,22.17
2023-08-29T19:28:37.385Z,21.78
2023-08-29T19:31:08.229Z,21.56
2023-08-29T19:33:36.360Z,21.15
2023-08-29T19:36:12.160Z,20.75
2023-08-29T19:38:45.810Z,20.61
2023-08-29T19:41:15.141Z,20.42
2023-08-29T19:43:43.262Z,20.27
2023-08-29T19:46:11.316Z,20.02
2023-08-29T19:48:39.407Z,20.02
2023-08-29T19:51:07.408Z,20.04
2023-08-29T19:53:38.394Z,20.01
2023-08-29T19:56:07.239Z,19.98
2023-08-29T19:58:35.960Z,20.00
2023-08-29T20:01:10.060Z,20.03
2023-08-29T20:03:38.419Z,20.07
2023-08-29T20:06:06.612Z,20.12
2023-08-29T20:08:34.780Z,20.18
2023-08-29T20:11:06.467Z,20.21
2023-08-29T20:13:34.755Z,20.15
2023-08-29T20:16:06.933Z,20.14
2023-08-29T20:18:35.086Z,20.17
2023-08-29T20:21:05.082Z,20.21
2023-08-29T20:23:34.820Z,20.16
2023-08-29T20:26:05.680Z,20.07
2023-08-29T20:28:33.800Z,19.94
2023-08-29T20:31:04.453Z,19.91
2023-08-29T20:33:32.775Z,19.89
2023-08-29T20:36:00.714Z,19.85
2023-08-29T20:38:28.750Z,19.85
2023-08-29T20:40:56.695Z,19.84
2023-08-29T20:43:24.668Z,19.86
2023-08-29T20:45:52.648Z,19.86
2023-08-29T20:48:20.616Z,19.91
2023-08-29T20:50:51.043Z,19.97
2023-08-29T20:53:19.052Z,20.05
2023-08-29T20:55:47.026Z,19.81
2023-08-29T20:58:15.313Z,19.86
2023-08-29T21:00:43.407Z,19.88
2023-08-29T21:03:11.722Z,19.81
2023-08-29T21:05:39.991Z,19.87
2023-08-29T21:08:08.215Z,19.91
2023-08-29T21:10:36.420Z,20.01
2023-08-29T21:13:05.419Z,19.93
2023-08-29T21:15:33.519Z,19.92
2023-08-29T21:18:01.793Z,19.88
2023-08-29T21:20:29.987Z,19.87
2023-08-29T21:22:57.971Z,19.98
2023-08-29T21:25:25.895Z,19.94
2023-08-29T21:27:53.881Z,19.93
2023-08-29T21:30:21.863Z,20.01
2023-08-29T21:32:49.880Z,20.16
2023-08-29T21:35:21.285Z,20.20
2023-08-29T21:37:49.256Z,20.25
2023-08-29T21:40:18.177Z,20.23
2023-08-29T21:42:46.701Z,20.23
2023-08-29T21:45:15.478Z,20.16
2023-08-29T21:47:43.535Z,20.11
2023-08-29T21:50:11.953Z,20.05
2023-08-29T21:52:39.980Z,20.10
2023-08-29T21:55:09.589Z,20.10
2023-08-29T21:57:37.482Z,20.06
2023-08-29T22:00:08.625Z,19.97
2023-08-29T22:02:38.855Z,19.86
2023-08-29T22:05:07.143Z,19.70
2023-08-29T22:07:36.457Z,19.81
2023-08-29T22:10:08.176Z,19.60
2023-08-29T22:12:36.196Z,19.46
2023-08-29T22:15:05.915Z,19.26
2023-08-29T22:17:34.188Z,19.16
2023-08-29T22:20:02.227Z,19.18
2023-08-29T22:22:30.215Z,19.29
2023-08-29T22:24:58.178Z,19.40
2023-08-29T22:27:26.213Z,19.49
2023-08-29T22:29:54.148Z,19.61
2023-08-29T22:32:22.123Z,19.69
2023-08-29T22:34:50.442Z,19.69
2023-08-29T22:37:19.155Z,19.53
2023-08-29T22:39:51.848Z,19.56
2023-08-29T22:42:19.921Z,19.57
2023-08-29T22:44:47.992Z,19.70
2023-08-29T22:47:16.800Z,19.68
2023-08-29T22:49:44.904Z,19.54
2023-08-29T22:52:13.420Z,19.60
2023-08-29T22:54:42.102Z,19.68
2023-08-29T22:57:11.769Z,19.63
2023-08-29T22:59:39.976Z,19.62
2023-08-29T23:02:08.586Z,19.67
2023-08-29T23:04:36.976Z,19.63
2023-08-29T23:07:10.052Z,19.59
2023-08-29T23:09:38.814Z,19.55
2023-08-29T23:12:07.224Z,19.61
2023-08-29T23:14:35.679Z,19.49
2023-08-29T23:17:07.639Z,19.39
2023-08-29T23:19:35.645Z,19.43
2023-08-29T23:22:03.781Z,19.48
2023-08-29T23:24:32.366Z,19.48
2023-08-29T23:27:03.947Z,19.46
2023-08-29T23:29:34.460Z,19.44
2023-08-29T23:32:02.847Z,19.43
2023-08-29T23:34:32.244Z,19.46
2023-08-29T23:37:00.365Z,19.50
2023-08-29T23:39:28.374Z,19.42
2023-08-29T23:41:57.050Z,19.44
2023-08-29T23:44:25.034Z,19.49
2023-08-29T23:46:53.006Z,19.47
2023-08-29T23:49:21.158Z,19.37
2023-08-29T23:51:49.556Z,19.40
2023-08-29T23:54:17.596Z,19.43
2023-08-29T23:56:45.642Z,19.53
2023-08-29T23:59:13.656Z,19.61
